Hlavní strana
METAR-TAF:

METAR-TAF

Letiště :

Indianapolis, Indiana, Spojené státy americké

zeměpisná šířka: 40-01-50N, zeměpisná délka: 086-15-05W, výška: 281 m

Aktuální stav počasí

Zpráva byla vytvořena před 20 minutami, v 05:15 UTC
Jihovýchodní vítr 8 kt
Teplota -2°C
Vlhkost vzduchu 54%
Tlak 1024 hPa
Viditelnost: 16.1 km
Polojasno ve výšce 7500 ft
Zataženo ve výšce 10000 ft

METAR: KTYQ 240515Z AUTO 14008KT 10SM SCT075 OVC100 M02/M10 A3024 RMK AO2 T10211098

Čas: 22:35 (05:35 UTC)


TAF: chybějící

Stav a předpovědi počasí z více než 4 000 letišť (zprávy METAR a TAF).

Červené a žluté tečky na mapě představují dostupné meteorologické stanice.

Když kurzor umístíte na tečku, zobrazí se název stanice.

Pak kliknutím zobrazíte stav a předpověď počasí.

Chcete-li změnit mapu, kliknutím na zelené tlačítko se znaménkem +mapu přiblížíte, kliknutím na zelené tlačítko se znaménkem – mapu oddálíte a kliknutím na zelené šipky přejdete na sousední mapy.


METAR-TAF: